Time;durP1;ratioP1;P1;durP2;ratioP2;P2;SDS_P1;SDS_P2;PMS_P1;PMS_P2;Temp;Humidity;BMP_temperature;BMP_pressure;BME280_temperature;BME280_humidity;BME280_pressure;Samples;Min_cycle;Max_cycle;Signal;HPM_P1;HPM_P2
2021/09/29 00:02:08;;;;;;;27.10;18.50;;;17.10;92.50;;;;;;6184985;23;20425;-66
2021/09/29 00:04:36;;;;;;;25.17;19.33;;;17.10;92.30;;;;;;6184732;23;20718;-65
2021/09/29 00:07:03;;;;;;;26.27;16.57;;;17.10;92.50;;;;;;6185170;23;20375;-66
2021/09/29 00:09:33;;;;;;;23.13;15.73;;;17.10;92.70;;;;;;6184812;23;20398;-65
2021/09/29 00:12:00;;;;;;;25.07;16.93;;;17.00;92.80;;;;;;6184960;23;20434;-64
2021/09/29 00:14:29;;;;;;;21.83;17.13;;;17.00;93.00;;;;;;6184148;23;20501;-64
2021/09/29 00:17:01;;;;;;;25.70;19.33;;;17.00;93.10;;;;;;6184648;23;20933;-64
2021/09/29 00:19:29;;;;;;;25.87;17.80;;;17.00;93.30;;;;;;6183788;23;20375;-64
2021/09/29 00:21:57;;;;;;;21.80;18.00;;;16.90;93.10;;;;;;6183606;23;20894;-64
2021/09/29 00:24:24;;;;;;;25.57;17.07;;;16.90;93.10;;;;;;6184139;23;20458;-64
2021/09/29 00:26:56;;;;;;;30.63;20.20;;;16.90;93.20;;;;;;6184818;23;20760;-64
2021/09/29 00:29:23;;;;;;;28.30;17.07;;;16.90;93.30;;;;;;6183430;23;20423;-64
2021/09/29 00:31:50;;;;;;;23.37;16.93;;;16.90;93.40;;;;;;6184989;23;20537;-64
2021/09/29 00:34:28;;;;;;;23.90;17.07;;;16.90;93.50;;;;;;6182630;23;20486;-64
2021/09/29 00:36:59;;;;;;;24.90;18.07;;;16.90;93.40;;;;;;6184564;23;20378;-65
2021/09/29 00:39:35;;;;;;;24.27;17.50;;;16.90;93.50;;;;;;6184459;23;20458;-67
2021/09/29 00:42:04;;;;;;;26.23;18.03;;;16.90;93.70;;;;;;6186117;23;20412;-64
2021/09/29 00:44:31;;;;;;;24.37;17.23;;;16.90;93.80;;;;;;6186386;23;20414;-64
2021/09/29 00:47:02;;;;;;;29.70;18.23;;;16.90;93.80;;;;;;6186935;23;20441;-65
2021/09/29 00:49:37;;;;;;;25.67;17.77;;;16.90;93.80;;;;;;6186473;23;20378;-65
2021/09/29 00:52:06;;;;;;;22.57;16.90;;;16.90;93.90;;;;;;6187066;23;20722;-67
2021/09/29 00:54:34;;;;;;;28.70;19.57;;;16.90;93.90;;;;;;6186574;23;20406;-65
2021/09/29 00:57:01;;;;;;;27.30;17.50;;;16.90;94.10;;;;;;6186361;23;20394;-64
2021/09/29 00:59:30;;;;;;;24.33;17.53;;;16.80;94.00;;;;;;6186571;23;20422;-64
2021/09/29 01:01:57;;;;;;;26.07;17.20;;;16.80;94.00;;;;;;6186071;23;20422;-64
2021/09/29 01:04:27;;;;;;;19.87;16.53;;;16.80;94.00;;;;;;6186345;23;20421;-64
2021/09/29 01:07:03;;;;;;;24.03;16.73;;;16.80;94.00;;;;;;6186060;23;20465;-64
2021/09/29 01:09:40;;;;;;;25.77;17.50;;;16.80;94.10;;;;;;6186312;23;20926;-65
2021/09/29 01:12:15;;;;;;;27.40;17.93;;;16.80;94.00;;;;;;6185413;23;20472;-64
2021/09/29 01:14:49;;;;;;;24.13;18.40;;;16.80;94.10;;;;;;6186278;23;20417;-64
2021/09/29 01:17:19;;;;;;;27.10;18.60;;;16.80;94.30;;;;;;6186068;23;20417;-64
2021/09/29 01:20:03;;;;;;;26.50;18.80;;;16.80;94.30;;;;;;6186667;23;20502;-65
2021/09/29 01:22:49;;;;;;;26.37;18.17;;;16.80;94.30;;;;;;6186399;23;20465;-64
2021/09/29 01:25:28;;;;;;;25.83;17.23;;;16.80;94.30;;;;;;6186044;23;20406;-64
2021/09/29 01:27:58;;;;;;;23.93;17.20;;;16.80;94.40;;;;;;6184829;23;20441;-64
2021/09/29 01:30:32;;;;;;;26.23;18.33;;;16.80;94.60;;;;;;6186185;23;20465;-65
2021/09/29 01:33:01;;;;;;;21.43;15.13;;;16.70;94.50;;;;;;6185939;23;20905;-65
2021/09/29 01:35:33;;;;;;;23.93;16.57;;;16.70;94.60;;;;;;6184222;23;20734;-64
2021/09/29 01:38:00;;;;;;;23.30;16.80;;;16.70;94.50;;;;;;6185720;23;20375;-64
2021/09/29 01:40:28;;;;;;;20.87;15.87;;;16.70;94.40;;;;;;6185329;23;20861;-64
2021/09/29 01:42:56;;;;;;;20.43;16.73;;;16.70;94.30;;;;;;6186404;23;20448;-64
2021/09/29 01:45:24;;;;;;;20.63;13.97;;;16.70;94.40;;;;;;6186074;23;20402;-64
2021/09/29 01:47:51;;;;;;;22.40;15.80;;;16.70;94.30;;;;;;6185488;23;20441;-64
2021/09/29 01:50:25;;;;;;;19.70;14.20;;;16.70;94.40;;;;;;6185701;23;20395;-64
2021/09/29 01:52:58;;;;;;;23.60;15.63;;;16.70;94.40;;;;;;6185328;23;20505;-64
2021/09/29 01:55:29;;;;;;;19.50;15.73;;;16.70;94.40;;;;;;6184831;23;20446;-64
2021/09/29 01:57:58;;;;;;;22.47;15.63;;;16.70;94.50;;;;;;6185979;23;20702;-64
2021/09/29 02:00:28;;;;;;;17.50;13.37;;;16.70;94.30;;;;;;6185784;23;20457;-64
2021/09/29 02:03:00;;;;;;;18.10;14.67;;;16.60;94.30;;;;;;6185798;23;20417;-64
2021/09/29 02:05:29;;;;;;;17.00;13.97;;;16.60;94.30;;;;;;6185498;23;20378;-64
2021/09/29 02:07:59;;;;;;;19.63;14.60;;;16.60;94.50;;;;;;6185374;23;20393;-65
2021/09/29 02:10:31;;;;;;;20.30;15.07;;;16.60;94.50;;;;;;6185534;23;20760;-64
2021/09/29 02:13:01;;;;;;;26.60;15.47;;;16.60;94.50;;;;;;6185740;23;20422;-65
2021/09/29 02:15:32;;;;;;;22.23;17.70;;;16.50;94.70;;;;;;6184866;23;20414;-65
2021/09/29 02:17:59;;;;;;;20.40;14.97;;;16.50;95.00;;;;;;6186063;23;20379;-64
2021/09/29 02:20:27;;;;;;;18.50;14.73;;;16.40;95.20;;;;;;6185638;23;20862;-64
2021/09/29 02:22:54;;;;;;;21.23;16.30;;;16.40;95.10;;;;;;6185455;23;21273;-65
2021/09/29 02:25:23;;;;;;;19.57;14.87;;;16.30;95.30;;;;;;6184838;23;20399;-64
2021/09/29 02:27:56;;;;;;;20.73;15.30;;;16.30;95.60;;;;;;6185884;23;20417;-64
2021/09/29 02:30:24;;;;;;;22.37;16.07;;;16.20;95.70;;;;;;6184742;23;20386;-64
2021/09/29 02:33:00;;;;;;;24.43;16.00;;;16.30;95.90;;;;;;6185417;23;20438;-65
2021/09/29 02:35:29;;;;;;;19.60;14.20;;;16.30;95.90;;;;;;6185090;23;20374;-64
2021/09/29 02:37:56;;;;;;;18.27;13.30;;;16.30;95.80;;;;;;6185342;23;20695;-64
2021/09/29 02:40:23;;;;;;;19.77;15.10;;;16.30;95.60;;;;;;6185137;23;20754;-64
2021/09/29 02:42:51;;;;;;;20.43;14.17;;;16.20;95.50;;;;;;6184831;23;20866;-65
2021/09/29 02:45:20;;;;;;;18.50;12.73;;;16.20;95.70;;;;;;6185032;23;20385;-65
2021/09/29 02:47:49;;;;;;;17.47;13.43;;;16.20;95.70;;;;;;6185532;23;20390;-65
2021/09/29 02:50:16;;;;;;;16.33;12.27;;;16.20;95.70;;;;;;6185305;23;20441;-64
2021/09/29 02:52:43;;;;;;;15.83;12.33;;;16.20;95.70;;;;;;6185189;23;20429;-68
2021/09/29 02:55:11;;;;;;;17.37;13.00;;;16.20;95.60;;;;;;6185602;23;20448;-64
2021/09/29 02:57:38;;;;;;;16.07;12.80;;;16.20;95.60;;;;;;6184959;23;20387;-64
2021/09/29 03:00:07;;;;;;;18.20;12.33;;;16.20;95.40;;;;;;6185671;23;20507;-65
2021/09/29 03:02:37;;;;;;;19.70;12.90;;;16.20;95.50;;;;;;6185209;23;20745;-65
2021/09/29 03:05:07;;;;;;;15.60;10.93;;;16.20;95.50;;;;;;6184448;23;20383;-64
2021/09/29 03:07:39;;;;;;;14.67;12.30;;;16.20;95.50;;;;;;6184836;23;20399;-64
2021/09/29 03:10:11;;;;;;;13.47;11.10;;;16.20;95.60;;;;;;6185177;23;20375;-64
2021/09/29 03:12:41;;;;;;;14.37;11.20;;;16.20;95.60;;;;;;6185312;23;21130;-64
2021/09/29 03:15:14;;;;;;;15.27;10.83;;;16.20;95.60;;;;;;6184629;23;20446;-65
2021/09/29 03:17:46;;;;;;;13.00;10.50;;;16.20;95.40;;;;;;6185209;23;20410;-65
2021/09/29 03:20:15;;;;;;;13.53;10.30;;;16.20;95.50;;;;;;6184997;23;20423;-64
2021/09/29 03:22:45;;;;;;;13.33;9.50;;;16.20;95.60;;;;;;6184713;23;20772;-65
2021/09/29 03:25:14;;;;;;;13.40;10.70;;;16.20;95.70;;;;;;6184793;23;20456;-65
2021/09/29 03:27:46;;;;;;;17.77;9.57;;;16.30;95.80;;;;;;6185027;23;20389;-66
2021/09/29 03:30:14;;;;;;;14.13;10.40;;;16.30;95.70;;;;;;6184991;23;20442;-65
2021/09/29 03:32:43;;;;;;;13.10;10.17;;;16.20;95.60;;;;;;6184915;23;20445;-64
2021/09/29 03:35:15;;;;;;;14.53;10.33;;;16.20;95.80;;;;;;6184727;23;20383;-64
2021/09/29 03:37:43;;;;;;;13.83;10.67;;;16.20;95.80;;;;;;6185389;23;20462;-64
2021/09/29 03:40:14;;;;;;;12.30;10.57;;;16.20;95.90;;;;;;6185084;23;20473;-65
2021/09/29 03:42:41;;;;;;;11.10;9.90;;;16.20;95.90;;;;;;6184949;23;20418;-65
2021/09/29 03:45:17;;;;;;;12.40;10.40;;;16.10;95.60;;;;;;6185088;23;20382;-64
2021/09/29 03:47:46;;;;;;;13.03;10.83;;;16.10;95.70;;;;;;6184732;23;20385;-66
2021/09/29 03:50:16;;;;;;;18.27;12.13;;;16.20;95.80;;;;;;6184691;23;20414;-65
2021/09/29 03:52:45;;;;;;;15.60;12.57;;;16.20;95.80;;;;;;6185207;23;20433;-64
2021/09/29 03:55:13;;;;;;;15.67;10.33;;;16.20;95.80;;;;;;6184207;23;20386;-65
2021/09/29 03:57:40;;;;;;;13.80;9.80;;;16.10;96.00;;;;;;6184563;23;20461;-65
2021/09/29 04:00:13;;;;;;;15.30;10.23;;;16.10;96.10;;;;;;6184699;23;20399;-64
2021/09/29 04:02:46;;;;;;;13.97;10.57;;;16.10;96.10;;;;;;6185184;23;20370;-64
2021/09/29 04:05:13;;;;;;;11.37;9.30;;;16.10;96.10;;;;;;6184339;23;20939;-65
2021/09/29 04:07:42;;;;;;;16.30;8.63;;;16.10;96.10;;;;;;6185077;23;20397;-64
2021/09/29 04:10:10;;;;;;;12.43;9.50;;;16.10;96.20;;;;;;6184842;23;20391;-64
2021/09/29 04:12:43;;;;;;;10.83;8.90;;;16.10;96.00;;;;;;6184565;23;20873;-65
2021/09/29 04:15:11;;;;;;;10.37;8.73;;;16.10;95.90;;;;;;6184381;23;20468;-64
2021/09/29 04:17:44;;;;;;;13.80;9.60;;;16.10;95.90;;;;;;6184937;23;20445;-65
2021/09/29 04:20:14;;;;;;;10.73;8.20;;;16.10;95.90;;;;;;6184460;23;20382;-65
2021/09/29 04:22:43;;;;;;;10.80;7.87;;;16.00;95.50;;;;;;6185145;23;20906;-65
2021/09/29 04:25:11;;;;;;;8.43;7.20;;;16.00;95.40;;;;;;6184161;23;20445;-65
2021/09/29 04:27:40;;;;;;;11.90;7.20;;;15.90;95.40;;;;;;6184174;23;20394;-64
2021/09/29 04:30:14;;;;;;;13.07;6.93;;;15.90;95.40;;;;;;6184244;23;20445;-64
2021/09/29 04:32:44;;;;;;;8.00;6.33;;;15.90;95.30;;;;;;6184525;23;20385;-64
2021/09/29 04:35:14;;;;;;;7.43;5.43;;;15.90;95.40;;;;;;6184674;23;20391;-64
2021/09/29 04:37:43;;;;;;;10.90;7.50;;;16.00;95.20;;;;;;6183910;23;20854;-65
2021/09/29 04:40:11;;;;;;;6.57;5.43;;;15.90;95.20;;;;;;6184033;23;20390;-65
2021/09/29 04:42:40;;;;;;;7.00;5.53;;;15.80;95.30;;;;;;6184585;23;20387;-65
2021/09/29 04:45:09;;;;;;;7.60;4.37;;;15.90;95.30;;;;;;6185091;23;20398;-65
2021/09/29 04:47:36;;;;;;;6.40;4.23;;;15.90;94.90;;;;;;6184413;23;20401;-64
2021/09/29 04:50:04;;;;;;;4.80;3.30;;;15.90;94.60;;;;;;6184663;23;20958;-64
2021/09/29 04:52:31;;;;;;;6.13;4.20;;;15.80;94.50;;;;;;6184653;23;20382;-64
2021/09/29 04:55:00;;;;;;;8.03;4.50;;;15.80;94.50;;;;;;6184311;23;20545;-65
2021/09/29 04:57:32;;;;;;;5.03;3.00;;;15.80;94.60;;;;;;6184667;23;20390;-65
2021/09/29 05:00:00;;;;;;;4.30;3.53;;;15.80;94.80;;;;;;6184382;23;20383;-65
2021/09/29 05:02:30;;;;;;;3.70;2.53;;;15.70;94.60;;;;;;6184366;23;20422;-65
2021/09/29 05:04:59;;;;;;;5.00;3.63;;;15.70;94.60;;;;;;6184256;23;20430;-64
2021/09/29 05:07:26;;;;;;;3.40;2.67;;;15.80;94.70;;;;;;6184386;23;20422;-64
2021/09/29 05:09:53;;;;;;;4.60;2.57;;;15.80;94.50;;;;;;6184277;23;20456;-64
2021/09/29 05:12:29;;;;;;;4.87;4.00;;;15.70;94.50;;;;;;6184611;23;20390;-64
2021/09/29 05:14:57;;;;;;;3.90;2.80;;;15.60;94.10;;;;;;6184352;23;20437;-64
2021/09/29 05:17:26;;;;;;;4.73;3.77;;;15.60;94.40;;;;;;6184826;23;20425;-65
2021/09/29 05:19:53;;;;;;;6.40;3.83;;;15.50;94.70;;;;;;6184127;23;20425;-64
2021/09/29 05:22:25;;;;;;;6.57;3.97;;;15.60;94.90;;;;;;6184041;23;20414;-65
2021/09/29 05:24:54;;;;;;;4.43;3.63;;;15.60;95.20;;;;;;6184266;23;20407;-65
2021/09/29 05:27:21;;;;;;;5.20;3.57;;;15.60;95.10;;;;;;6184580;23;20385;-64
2021/09/29 05:29:51;;;;;;;3.90;3.33;;;15.60;94.90;;;;;;6186150;23;20394;-65
2021/09/29 05:32:24;;;;;;;3.53;2.90;;;15.50;94.80;;;;;;6186790;23;20418;-65
2021/09/29 05:34:51;;;;;;;3.97;2.73;;;15.50;94.90;;;;;;6183997;23;20422;-64
2021/09/29 05:37:18;;;;;;;3.97;2.90;;;15.40;94.90;;;;;;6185668;23;20881;-64
2021/09/29 05:39:48;;;;;;;4.30;2.90;;;15.50;94.70;;;;;;6185613;23;20398;-65
2021/09/29 05:42:16;;;;;;;3.90;3.03;;;15.40;95.00;;;;;;6185241;23;20391;-65
2021/09/29 05:44:43;;;;;;;4.30;2.80;;;15.50;95.10;;;;;;6185552;23;20391;-65
2021/09/29 05:47:14;;;;;;;3.70;2.90;;;15.50;94.90;;;;;;6185095;23;20402;-65
2021/09/29 05:49:45;;;;;;;4.10;2.50;;;15.40;94.70;;;;;;6185283;23;20395;-65
2021/09/29 05:52:13;;;;;;;5.40;3.00;;;15.50;94.80;;;;;;6185331;23;20406;-66
2021/09/29 05:54:42;;;;;;;3.90;2.97;;;15.60;94.90;;;;;;6184983;23;20920;-64
2021/09/29 05:57:17;;;;;;;7.57;4.37;;;15.60;94.90;;;;;;6185454;23;20394;-65
2021/09/29 05:59:46;;;;;;;6.90;3.13;;;15.60;94.90;;;;;;6185265;23;20857;-65
2021/09/29 06:02:15;;;;;;;3.03;2.30;;;15.70;95.00;;;;;;6185635;23;20398;-64
2021/09/29 06:04:47;;;;;;;5.17;3.03;;;15.70;94.90;;;;;;6185416;23;20453;-65
2021/09/29 06:07:18;;;;;;;4.10;2.53;;;15.70;94.70;;;;;;6185342;23;20442;-66
2021/09/29 06:09:51;;;;;;;5.20;3.10;;;15.70;94.50;;;;;;6185477;23;20745;-65
2021/09/29 06:12:18;;;;;;;5.60;2.83;;;15.60;94.60;;;;;;6185781;23;20403;-64
2021/09/29 06:14:50;;;;;;;3.67;2.60;;;15.60;94.20;;;;;;6185601;23;20434;-65
2021/09/29 06:17:22;;;;;;;4.00;2.80;;;15.60;94.10;;;;;;6185149;23;20381;-64
2021/09/29 06:19:51;;;;;;;4.90;2.70;;;15.60;94.10;;;;;;6185611;23;20378;-65
2021/09/29 06:22:19;;;;;;;4.37;2.97;;;15.70;94.20;;;;;;6185604;23;20422;-64
2021/09/29 06:24:51;;;;;;;3.73;2.30;;;15.70;94.60;;;;;;6185387;23;20441;-65
2021/09/29 06:27:18;;;;;;;4.57;2.77;;;15.80;94.70;;;;;;6185077;23;20398;-65
2021/09/29 06:29:47;;;;;;;4.57;2.83;;;15.90;94.70;;;;;;6185166;23;20866;-64
2021/09/29 06:32:15;;;;;;;4.60;3.90;;;15.90;94.60;;;;;;6185245;23;20387;-64
2021/09/29 06:34:43;;;;;;;4.20;2.63;;;16.00;94.80;;;;;;6185430;23;20508;-65
2021/09/29 06:37:11;;;;;;;6.03;3.27;;;16.00;94.50;;;;;;6184906;23;20706;-65
2021/09/29 06:39:39;;;;;;;4.80;2.70;;;16.00;94.40;;;;;;6184981;23;20397;-65
2021/09/29 06:42:14;;;;;;;4.90;3.00;;;16.10;94.50;;;;;;6185575;23;20486;-65
2021/09/29 06:44:53;;;;;;;4.30;2.63;;;16.10;93.30;;;;;;6185235;23;20386;-66
2021/09/29 06:47:21;;;;;;;4.00;2.50;;;16.10;93.40;;;;;;6185182;23;20654;-64
2021/09/29 06:49:52;;;;;;;4.43;3.00;;;16.00;92.30;;;;;;6185261;23;20398;-64
2021/09/29 06:52:22;;;;;;;6.13;2.40;;;16.00;92.40;;;;;;6185063;23;20371;-64
2021/09/29 06:54:49;;;;;;;5.80;3.17;;;16.10;92.20;;;;;;6182737;23;20438;-64
2021/09/29 06:57:30;;;;;;;4.17;2.47;;;16.10;92.40;;;;;;6184603;23;20676;-65
2021/09/29 07:00:03;;;;;;;3.73;2.20;;;16.20;92.70;;;;;;6185046;23;20432;-64
2021/09/29 07:02:50;;;;;;;3.23;2.30;;;16.20;92.30;;;;;;6184678;23;20841;-68
2021/09/29 07:05:22;;;;;;;3.33;2.07;;;16.30;92.50;;;;;;6184914;23;20861;-65
2021/09/29 07:07:51;;;;;;;3.80;2.60;;;16.40;92.50;;;;;;6185628;23;20374;-64
2021/09/29 07:10:24;;;;;;;3.57;2.13;;;16.40;92.20;;;;;;6185004;23;20426;-65
2021/09/29 07:13:07;;;;;;;10.40;2.10;;;16.40;92.10;;;;;;6185311;23;20457;-66
2021/09/29 07:15:35;;;;;;;5.43;2.33;;;16.60;92.20;;;;;;6185166;23;20540;-65
2021/09/29 07:18:10;;;;;;;4.57;2.80;;;16.60;91.10;;;;;;6185252;23;20386;-66
2021/09/29 07:20:42;;;;;;;3.23;1.87;;;16.70;91.20;;;;;;6184869;23;20456;-65
2021/09/29 07:23:11;;;;;;;4.53;2.30;;;16.70;90.80;;;;;;6184875;23;20422;-64
2021/09/29 07:25:39;;;;;;;2.83;2.00;;;16.70;88.10;;;;;;6184740;23;20511;-65
2021/09/29 07:28:09;;;;;;;3.37;1.87;;;16.70;86.70;;;;;;6184846;23;20469;-65
2021/09/29 07:30:36;;;;;;;5.67;2.33;;;16.60;85.30;;;;;;6185312;23;20418;-65
2021/09/29 07:33:11;;;;;;;3.40;1.63;;;16.60;86.20;;;;;;6184991;23;20885;-66
2021/09/29 07:35:45;;;;;;;2.90;1.73;;;16.60;86.20;;;;;;6184564;23;20509;-65
2021/09/29 07:38:19;;;;;;;2.43;1.67;;;16.60;85.00;;;;;;6184948;23;20375;-66
2021/09/29 07:40:49;;;;;;;3.20;2.07;;;16.60;86.60;;;;;;6184866;23;20461;-65
2021/09/29 07:43:21;;;;;;;2.33;1.20;;;16.60;86.30;;;;;;6185122;23;20474;-64
2021/09/29 07:45:48;;;;;;;4.00;1.70;;;16.60;84.10;;;;;;6184752;23;20418;-64
2021/09/29 07:48:15;;;;;;;2.67;1.27;;;16.50;82.30;;;;;;6184928;23;20422;-65
2021/09/29 07:50:43;;;;;;;3.60;1.63;;;16.60;83.90;;;;;;6184552;23;20387;-65
2021/09/29 07:53:11;;;;;;;2.83;1.53;;;16.60;83.80;;;;;;6184580;23;20436;-65
2021/09/29 07:55:38;;;;;;;8.70;4.90;;;16.50;82.10;;;;;;6184947;23;20437;-65
2021/09/29 07:58:05;;;;;;;7.90;3.13;;;16.60;81.50;;;;;;6184578;23;20896;-65
2021/09/29 08:00:32;;;;;;;3.53;1.80;;;16.50;81.30;;;;;;6184649;23;20433;-64
2021/09/29 08:03:05;;;;;;;3.60;1.47;;;16.50;82.40;;;;;;6184602;23;20422;-66
2021/09/29 08:05:33;;;;;;;4.00;1.40;;;16.50;81.20;;;;;;6184446;23;20383;-64
2021/09/29 08:08:01;;;;;;;5.93;1.40;;;16.60;81.90;;;;;;6184212;23;20501;-64
2021/09/29 08:10:28;;;;;;;3.90;1.40;;;16.60;82.90;;;;;;6184440;23;20386;-66
2021/09/29 08:12:55;;;;;;;3.97;1.40;;;16.60;81.20;;;;;;6184129;23;20401;-66
2021/09/29 08:15:23;;;;;;;4.87;1.40;;;16.60;82.10;;;;;;6183913;23;20747;-64
2021/09/29 08:17:54;;;;;;;4.33;1.50;;;16.70;81.50;;;;;;6184149;23;20889;-64
2021/09/29 08:20:21;;;;;;;2.67;1.67;;;16.70;80.30;;;;;;6184480;23;20448;-64
2021/09/29 08:22:54;;;;;;;2.43;1.47;;;16.70;81.00;;;;;;6184512;23;20405;-64
2021/09/29 08:25:35;;;;;;;4.97;1.50;;;16.80;81.30;;;;;;6184415;23;20382;-65
2021/09/29 08:28:14;;;;;;;4.80;1.83;;;16.80;80.10;;;;;;6184361;23;20885;-65
2021/09/29 08:30:58;;;;;;;3.60;1.60;;;16.80;80.10;;;;;;6184002;23;20387;-65
2021/09/29 08:33:43;;;;;;;2.80;1.27;;;16.80;80.90;;;;;;6181124;23;20865;-66
2021/09/29 08:36:18;;;;;;;5.10;1.37;;;16.80;80.10;;;;;;6184213;23;20426;-64
2021/09/29 08:38:51;;;;;;;2.10;1.20;;;16.80;78.60;;;;;;6184497;23;20393;-65
2021/09/29 08:41:30;;;;;;;4.83;1.43;;;16.90;78.70;;;;;;6184039;23;20920;-65
2021/09/29 08:44:03;;;;;;;4.80;1.60;;;16.90;77.80;;;;;;6184715;23;20449;-64
2021/09/29 08:46:33;;;;;;;5.03;1.30;;;16.90;78.30;;;;;;6184853;23;20390;-64
2021/09/29 08:49:05;;;;;;;3.60;1.30;;;17.00;78.50;;;;;;6184433;23;20666;-65
2021/09/29 08:51:55;;;;;;;2.37;1.43;;;17.10;77.50;;;;;;6184554;23;20375;-66
2021/09/29 08:54:38;;;;;;;5.30;1.20;;;17.20;77.30;;;;;;6183763;23;20382;-65
2021/09/29 08:57:25;;;;;;;6.37;1.13;;;17.20;76.70;;;;;;6184339;23;20382;-65
2021/09/29 09:16:32;;;;;;;2.40;1.07;;;17.50;75.20;;;;;;6186109;23;20425;-64
2021/09/29 09:19:02;;;;;;;3.97;1.03;;;17.60;75.20;;;;;;6185785;23;20388;-65
2021/09/29 09:21:29;;;;;;;3.70;1.03;;;17.70;74.50;;;;;;6185930;23;20379;-64
2021/09/29 09:23:58;;;;;;;2.53;1.40;;;17.80;74.00;;;;;;6185991;23;21012;-65
2021/09/29 09:26:28;;;;;;;2.80;1.20;;;17.90;74.20;;;;;;6185882;23;20397;-65
2021/09/29 09:29:06;;;;;;;2.70;0.93;;;18.00;73.00;;;;;;6186525;23;20421;-65
2021/09/29 09:31:33;;;;;;;2.10;1.10;;;18.10;70.80;;;;;;6185999;23;20383;-64
2021/09/29 09:34:03;;;;;;;2.17;1.33;;;18.10;68.70;;;;;;6185799;23;20874;-65
2021/09/29 09:36:33;;;;;;;2.10;0.87;;;18.20;68.60;;;;;;6186165;23;20517;-65
2021/09/29 09:39:04;;;;;;;6.83;1.30;;;18.30;70.30;;;;;;6185795;23;20470;-64
2021/09/29 09:41:32;;;;;;;1.77;0.90;;;18.50;70.90;;;;;;6185582;23;20406;-65
2021/09/29 09:44:00;;;;;;;4.77;1.13;;;18.60;70.60;;;;;;6185672;23;20462;-65
2021/09/29 09:46:29;;;;;;;2.73;1.10;;;18.60;68.70;;;;;;6185470;23;20531;-65
2021/09/29 09:49:03;;;;;;;3.17;1.47;;;18.70;67.90;;;;;;6185648;23;20928;-65
2021/09/29 09:51:32;;;;;;;3.40;1.20;;;18.70;67.60;;;;;;6185964;23;20722;-64
2021/09/29 09:53:59;;;;;;;2.23;0.87;;;18.80;69.80;;;;;;6185970;23;20409;-64
2021/09/29 09:56:30;;;;;;;3.10;1.70;;;18.80;69.40;;;;;;6185223;23;20466;-66
2021/09/29 09:58:58;;;;;;;2.77;1.40;;;18.90;69.90;;;;;;6185682;23;20383;-65
2021/09/29 10:01:30;;;;;;;3.83;1.27;;;18.90;67.80;;;;;;6185781;23;20418;-65
2021/09/29 10:04:08;;;;;;;3.37;1.40;;;18.90;67.90;;;;;;6185763;23;20375;-65
2021/09/29 10:06:35;;;;;;;2.33;1.10;;;19.10;69.30;;;;;;6186029;23;20896;-65
2021/09/29 10:09:09;;;;;;;3.43;1.30;;;19.50;70.60;;;;;;6185890;23;20387;-65
2021/09/29 10:11:53;;;;;;;4.10;1.40;;;19.90;67.10;;;;;;6185749;23;20446;-65
2021/09/29 10:22:56;;;;;;;3.47;1.00;;;22.90;58.60;;;;;;6185526;23;20370;-65
2021/09/29 10:28:11;;;;;;;3.10;1.60;;;27.10;55.80;;;;;;6185343;23;20418;-67
2021/09/29 10:30:41;;;;;;;4.07;1.30;;;29.50;44.60;;;;;;6185719;23;20486;-66
2021/09/29 10:33:20;;;;;;;4.13;1.43;;;31.20;40.60;;;;;;6186020;23;20375;-66
2021/09/29 10:36:05;;;;;;;2.10;1.10;;;32.80;39.50;;;;;;6185446;23;20510;-66
2021/09/29 10:41:32;;;;;;;3.20;1.47;;;37.90;27.40;;;;;;6153798;23;20383;-64
2021/09/29 10:44:05;;;;;;;2.67;1.13;;;37.50;24.20;;;;;;6185007;23;20909;-64
2021/09/29 10:46:49;;;;;;;5.10;2.20;;;35.30;24.60;;;;;;6185227;23;20387;-66
2021/09/29 10:49:28;;;;;;;8.03;1.70;;;33.30;25.30;;;;;;6184878;23;20382;-64
2021/09/29 11:09:37;;;;;;;2.23;1.00;;;27.20;37.10;;;;;;6184802;23;20841;-67
2021/09/29 11:29:14;;;;;;;2.43;0.90;;;25.20;39.40;;;;;;6184506;23;20371;-67
2021/09/29 11:31:46;;;;;;;3.93;1.20;;;25.10;39.90;;;;;;6183473;23;20670;-65
2021/09/29 11:34:18;;;;;;;3.27;1.20;;;26.20;43.80;;;;;;6183929;23;20898;-65
2021/09/29 11:39:55;;;;;;;2.50;1.20;;;34.80;32.10;;;;;;6123501;23;20873;-66
2021/09/29 12:08:03;;;;;;;2.77;1.07;;;34.10;20.30;;;;;;6184546;23;20453;-65
2021/09/29 12:10:31;;;;;;;3.93;1.10;;;32.40;22.50;;;;;;6184214;23;20893;-65
2021/09/29 12:13:04;;;;;;;2.07;1.00;;;31.00;24.50;;;;;;6184475;23;20461;-65
2021/09/29 12:15:31;;;;;;;2.00;0.90;;;29.80;25.40;;;;;;6184828;23;20445;-65
2021/09/29 12:17:58;;;;;;;6.60;3.63;;;28.70;27.40;;;;;;6184630;23;20772;-64
2021/09/29 12:20:27;;;;;;;3.60;1.70;;;27.80;28.70;;;;;;6184551;23;20387;-67
2021/09/29 12:22:57;;;;;;;3.07;2.20;;;27.10;29.30;;;;;;6184589;23;20391;-64
2021/09/29 12:25:27;;;;;;;7.30;1.20;;;26.60;30.00;;;;;;6184443;23;20397;-64
2021/09/29 12:28:15;;;;;;;1.93;0.90;;;26.10;31.60;;;;;;6184524;23;20387;-64
2021/09/29 12:30:45;;;;;;;2.30;1.20;;;25.60;33.00;;;;;;6184617;23;20409;-64
2021/09/29 12:33:21;;;;;;;5.10;1.40;;;25.30;33.80;;;;;;6184589;23;20388;-65
2021/09/29 12:35:50;;;;;;;2.20;0.93;;;24.90;34.90;;;;;;6184469;23;20460;-64
2021/09/29 12:38:17;;;;;;;4.13;1.10;;;24.60;36.30;;;;;;6185420;23;20886;-65
2021/09/29 12:40:46;;;;;;;3.90;0.80;;;24.30;36.40;;;;;;6186406;23;20434;-65
2021/09/29 12:43:17;;;;;;;2.37;0.83;;;23.90;36.60;;;;;;6186453;23;20741;-66
2021/09/29 12:45:47;;;;;;;2.20;0.73;;;23.70;37.80;;;;;;6186657;23;20433;-64
2021/09/29 12:48:16;;;;;;;2.33;1.07;;;23.40;38.20;;;;;;6186240;23;20397;-66
2021/09/29 12:50:49;;;;;;;2.23;0.80;;;23.20;38.60;;;;;;6186431;23;20383;-65
2021/09/29 12:53:21;;;;;;;2.07;0.97;;;23.10;39.00;;;;;;6185910;23;20378;-64
2021/09/29 12:55:55;;;;;;;2.70;0.83;;;23.20;38.90;;;;;;6185726;23;20935;-64
2021/09/29 12:58:24;;;;;;;2.00;1.00;;;23.40;39.50;;;;;;6186027;23;20381;-64
2021/09/29 13:00:51;;;;;;;3.90;1.37;;;23.60;39.60;;;;;;6186332;23;20414;-66
2021/09/29 13:03:19;;;;;;;2.57;1.27;;;24.00;40.50;;;;;;6186215;23;20469;-64
2021/09/29 13:05:47;;;;;;;5.83;0.90;;;25.30;39.40;;;;;;6186592;23;20437;-65
2021/09/29 13:08:15;;;;;;;2.87;0.90;;;26.40;35.20;;;;;;6186575;23;20392;-64
2021/09/29 13:10:42;;;;;;;3.87;0.90;;;26.60;33.50;;;;;;6186089;23;20465;-67
2021/09/29 13:13:10;;;;;;;2.03;0.97;;;26.40;33.30;;;;;;6186511;23;20393;-64
2021/09/29 13:15:41;;;;;;;1.90;0.80;;;25.90;31.50;;;;;;6186259;23;20453;-65
2021/09/29 13:18:12;;;;;;;3.73;0.83;;;25.60;33.40;;;;;;6186399;23;20456;-66
2021/09/29 13:20:40;;;;;;;6.03;0.90;;;25.50;34.40;;;;;;6186304;23;20458;-65
2021/09/29 13:23:12;;;;;;;2.63;0.90;;;25.40;33.60;;;;;;6186224;23;20702;-65
2021/09/29 13:36:43;;;;;;;3.40;0.90;;;25.30;35.60;;;;;;6185752;23;20429;-67
2021/09/29 13:39:16;;;;;;;2.80;0.93;;;25.40;35.80;;;;;;6186085;23;20433;-66
2021/09/29 13:41:45;;;;;;;3.30;0.70;;;25.40;35.40;;;;;;6186111;23;20403;-64
2021/09/29 13:44:13;;;;;;;2.43;1.00;;;25.40;36.50;;;;;;6186460;23;20424;-64
2021/09/29 13:46:42;;;;;;;3.30;1.33;;;25.40;35.90;;;;;;6186151;23;20473;-65
2021/09/29 13:49:09;;;;;;;2.30;0.90;;;25.50;35.10;;;;;;6186061;23;20472;-65
2021/09/29 13:51:38;;;;;;;2.40;0.80;;;25.40;34.70;;;;;;6185605;23;20387;-65
2021/09/29 13:54:08;;;;;;;5.93;1.20;;;25.30;34.80;;;;;;6186062;23;20773;-64
2021/09/29 13:56:45;;;;;;;3.03;0.90;;;25.20;35.10;;;;;;6185593;23;20430;-64
2021/09/29 13:59:31;;;;;;;2.47;0.90;;;25.10;36.10;;;;;;6186211;23;20746;-65
2021/09/29 14:29:49;;;;;;;5.57;1.00;;;23.00;37.80;;;;;;6155744;23;20371;-65
2021/09/29 14:32:23;;;;;;;1.97;0.80;;;22.80;38.10;;;;;;6156162;23;20487;-64
2021/09/29 14:34:52;;;;;;;2.80;0.90;;;22.70;38.30;;;;;;6155431;23;20878;-64
2021/09/29 14:37:21;;;;;;;2.23;0.90;;;22.50;38.80;;;;;;6155670;23;20482;-64
2021/09/29 14:39:48;;;;;;;2.47;0.60;;;22.30;38.30;;;;;;6155424;23;20466;-66
2021/09/29 14:42:15;;;;;;;2.17;0.93;;;22.20;38.70;;;;;;6155737;23;20395;-65
2021/09/29 14:44:43;;;;;;;2.33;1.33;;;22.00;39.10;;;;;;6155501;23;20949;-64
2021/09/29 14:47:11;;;;;;;7.03;2.90;;;21.90;39.40;;;;;;6155638;23;20758;-64
2021/09/29 14:49:39;;;;;;;1.60;0.77;;;21.80;39.60;;;;;;6155230;23;20449;-65
2021/09/29 14:52:08;;;;;;;3.13;0.90;;;21.70;39.40;;;;;;6155555;23;20388;-65
2021/09/29 14:54:35;;;;;;;1.50;0.70;;;21.60;40.20;;;;;;6155665;23;20419;-65
2021/09/29 14:57:04;;;;;;;1.60;0.67;;;21.50;40.10;;;;;;6155678;23;20517;-64
2021/09/29 14:59:31;;;;;;;6.73;1.33;;;21.40;40.20;;;;;;6155194;23;20896;-65
2021/09/29 15:02:03;;;;;;;1.60;0.70;;;21.30;40.60;;;;;;6155278;23;20430;-63
2021/09/29 15:04:30;;;;;;;2.10;0.90;;;21.10;41.40;;;;;;6155314;23;20874;-64
2021/09/29 15:06:59;;;;;;;2.70;0.80;;;21.00;41.00;;;;;;6155564;23;20466;-64
2021/09/29 15:09:28;;;;;;;2.00;0.90;;;21.00;40.50;;;;;;6155266;23;20422;-64
2021/09/29 15:11:55;;;;;;;2.23;0.83;;;21.00;40.60;;;;;;6155097;23;20391;-64